KLNL

Kings Land O' Lakes Airport

Land O' Lakes, Wisconsin, USA
METAR KLNL 210655Z AUTO 00000KT 10SM CLR 03/01 A3023 RMK AO2 T00250013
Observed Flight Rules
May-21 @ 06:55 UTC (24 minutes ago) Visual Flight Rules
Visibility Clouds
10 miles
  • Clear skies
Temperatures Readings
Current 3°C / 37°F
Dewpoint 1°C / 34°F
Humidity 87%
Altimeter 30.23" Hg
Pressure 1024 hPa
Elevation 520
METAR KLNL 210655Z AUTO 00000KT 10SM CLR 03/01 A3023 RMK AO2 T00250013
Observed Flight Rules
May-21 @ 06:55 UTC
(24 minutes ago)
VFR
Clouds
  • Clear skies
Temperature Dewpoint
3°C / 37°F 1°C / 34°F
Humidity Altimeter Pressure
87% 30.23" Hg 1024 hPa